sensor_id;sensor_type;location;lat;lon;timestamp;temperature;humidity
27224;DHT22;14965;50.660;13.226;2023-05-29T00:01:47;8.90;99.90
27224;DHT22;14965;50.660;13.226;2023-05-29T00:04:12;8.90;99.90
27224;DHT22;14965;50.660;13.226;2023-05-29T00:06:38;8.90;99.90
27224;DHT22;14965;50.660;13.226;2023-05-29T00:09:05;8.80;99.90
27224;DHT22;14965;50.660;13.226;2023-05-29T00:11:31;8.90;99.90
27224;DHT22;14965;50.660;13.226;2023-05-29T00:13:57;8.80;99.90
27224;DHT22;14965;50.660;13.226;2023-05-29T00:16:23;8.80;99.90
27224;DHT22;14965;50.660;13.226;2023-05-29T00:18:49;8.70;99.90
27224;DHT22;14965;50.660;13.226;2023-05-29T00:21:15;8.70;99.90
27224;DHT22;14965;50.660;13.226;2023-05-29T00:23:41;8.70;99.90
27224;DHT22;14965;50.660;13.226;2023-05-29T00:26:08;8.80;99.90
27224;DHT22;14965;50.660;13.226;2023-05-29T00:28:35;8.80;99.90
27224;DHT22;14965;50.660;13.226;2023-05-29T00:31:01;8.80;99.90
27224;DHT22;14965;50.660;13.226;2023-05-29T00:33:27;8.80;99.90
27224;DHT22;14965;50.660;13.226;2023-05-29T00:35:53;8.70;99.90
27224;DHT22;14965;50.660;13.226;2023-05-29T00:38:19;8.60;99.90
27224;DHT22;14965;50.660;13.226;2023-05-29T00:40:45;8.50;99.90
27224;DHT22;14965;50.660;13.226;2023-05-29T00:43:13;8.40;99.90
27224;DHT22;14965;50.660;13.226;2023-05-29T00:45:39;8.40;99.90
27224;DHT22;14965;50.660;13.226;2023-05-29T00:48:05;8.40;99.90
27224;DHT22;14965;50.660;13.226;2023-05-29T00:50:32;8.40;99.90
27224;DHT22;14965;50.660;13.226;2023-05-29T00:52:59;8.40;99.90
27224;DHT22;14965;50.660;13.226;2023-05-29T00:55:27;8.40;99.90
27224;DHT22;14965;50.660;13.226;2023-05-29T00:57:53;8.40;99.90
27224;DHT22;14965;50.660;13.226;2023-05-29T01:00:21;8.40;99.90
27224;DHT22;14965;50.660;13.226;2023-05-29T01:02:48;8.20;99.90
27224;DHT22;14965;50.660;13.226;2023-05-29T01:05:14;8.10;99.90
27224;DHT22;14965;50.660;13.226;2023-05-29T01:07:40;8.00;99.90
27224;DHT22;14965;50.660;13.226;2023-05-29T01:10:08;8.00;99.90
27224;DHT22;14965;50.660;13.226;2023-05-29T01:12:38;8.10;99.90
27224;DHT22;14965;50.660;13.226;2023-05-29T01:15:18;8.00;99.90
27224;DHT22;14965;50.660;13.226;2023-05-29T01:18:10;8.00;99.90
27224;DHT22;14965;50.660;13.226;2023-05-29T01:20:48;8.00;99.90
27224;DHT22;14965;50.660;13.226;2023-05-29T01:26:48;7.80;99.90
27224;DHT22;14965;50.660;13.226;2023-05-29T01:29:18;7.70;99.90
27224;DHT22;14965;50.660;13.226;2023-05-29T01:31:48;7.70;99.90
27224;DHT22;14965;50.660;13.226;2023-05-29T01:34:15;7.80;99.90
27224;DHT22;14965;50.660;13.226;2023-05-29T01:36:41;7.80;99.90
27224;DHT22;14965;50.660;13.226;2023-05-29T01:39:06;7.80;99.90
27224;DHT22;14965;50.660;13.226;2023-05-29T01:41:34;7.80;99.90
27224;DHT22;14965;50.660;13.226;2023-05-29T01:44:04;7.70;99.90
27224;DHT22;14965;50.660;13.226;2023-05-29T01:46:32;7.60;99.90
27224;DHT22;14965;50.660;13.226;2023-05-29T01:48:58;7.60;99.90
27224;DHT22;14965;50.660;13.226;2023-05-29T01:51:24;7.60;99.90
27224;DHT22;14965;50.660;13.226;2023-05-29T01:53:50;7.50;99.90
27224;DHT22;14965;50.660;13.226;2023-05-29T01:56:16;7.50;99.90
27224;DHT22;14965;50.660;13.226;2023-05-29T01:58:43;7.40;99.90
27224;DHT22;14965;50.660;13.226;2023-05-29T02:01:11;7.40;99.90
27224;DHT22;14965;50.660;13.226;2023-05-29T02:03:37;7.40;99.90
27224;DHT22;14965;50.660;13.226;2023-05-29T02:06:03;7.50;99.90
27224;DHT22;14965;50.660;13.226;2023-05-29T02:08:29;7.50;99.90
27224;DHT22;14965;50.660;13.226;2023-05-29T02:10:55;7.40;99.90
27224;DHT22;14965;50.660;13.226;2023-05-29T02:13:21;7.50;99.90
27224;DHT22;14965;50.660;13.226;2023-05-29T02:15:47;7.50;99.90
27224;DHT22;14965;50.660;13.226;2023-05-29T02:18:15;7.50;99.90
27224;DHT22;14965;50.660;13.226;2023-05-29T02:20:41;7.40;99.90
27224;DHT22;14965;50.660;13.226;2023-05-29T02:23:08;7.40;99.90
27224;DHT22;14965;50.660;13.226;2023-05-29T02:25:34;7.20;99.90
27224;DHT22;14965;50.660;13.226;2023-05-29T02:28:00;7.20;99.90
27224;DHT22;14965;50.660;13.226;2023-05-29T02:30:27;7.10;99.90
27224;DHT22;14965;50.660;13.226;2023-05-29T02:32:53;7.00;99.90
27224;DHT22;14965;50.660;13.226;2023-05-29T02:35:20;7.00;99.90
27224;DHT22;14965;50.660;13.226;2023-05-29T02:37:46;7.00;99.90
27224;DHT22;14965;50.660;13.226;2023-05-29T02:40:12;6.90;99.90
27224;DHT22;14965;50.660;13.226;2023-05-29T02:42:38;6.80;99.90
27224;DHT22;14965;50.660;13.226;2023-05-29T02:45:05;6.80;99.90
27224;DHT22;14965;50.660;13.226;2023-05-29T02:47:31;6.80;99.90
27224;DHT22;14965;50.660;13.226;2023-05-29T02:49:57;6.70;99.90
27224;DHT22;14965;50.660;13.226;2023-05-29T02:52:24;6.70;99.90
27224;DHT22;14965;50.660;13.226;2023-05-29T02:54:50;6.70;99.90
27224;DHT22;14965;50.660;13.226;2023-05-29T02:57:16;6.70;99.90
27224;DHT22;14965;50.660;13.226;2023-05-29T02:59:42;6.70;99.90
27224;DHT22;14965;50.660;13.226;2023-05-29T03:02:07;6.70;99.90
27224;DHT22;14965;50.660;13.226;2023-05-29T03:04:33;6.80;99.90
27224;DHT22;14965;50.660;13.226;2023-05-29T03:06:59;6.80;99.90
27224;DHT22;14965;50.660;13.226;2023-05-29T03:09:26;6.80;99.90
27224;DHT22;14965;50.660;13.226;2023-05-29T03:11:52;6.80;99.90
27224;DHT22;14965;50.660;13.226;2023-05-29T03:14:18;6.70;99.90
27224;DHT22;14965;50.660;13.226;2023-05-29T03:16:44;6.70;99.90
27224;DHT22;14965;50.660;13.226;2023-05-29T03:19:10;6.80;99.90
27224;DHT22;14965;50.660;13.226;2023-05-29T03:21:36;6.80;99.90
27224;DHT22;14965;50.660;13.226;2023-05-29T03:24:02;6.80;99.90
27224;DHT22;14965;50.660;13.226;2023-05-29T03:26:29;6.80;99.90
27224;DHT22;14965;50.660;13.226;2023-05-29T03:28:55;6.80;99.90
27224;DHT22;14965;50.660;13.226;2023-05-29T03:31:21;6.90;99.90
27224;DHT22;14965;50.660;13.226;2023-05-29T03:33:47;6.90;99.90
27224;DHT22;14965;50.660;13.226;2023-05-29T03:36:13;6.90;99.90
27224;DHT22;14965;50.660;13.226;2023-05-29T03:38:39;6.90;99.90
27224;DHT22;14965;50.660;13.226;2023-05-29T03:41:05;7.00;99.90
27224;DHT22;14965;50.660;13.226;2023-05-29T03:43:32;7.00;99.90
27224;DHT22;14965;50.660;13.226;2023-05-29T03:45:58;7.00;99.90
27224;DHT22;14965;50.660;13.226;2023-05-29T03:48:24;7.00;99.90
27224;DHT22;14965;50.660;13.226;2023-05-29T03:50:50;7.10;99.90
27224;DHT22;14965;50.660;13.226;2023-05-29T03:53:16;7.10;99.90
27224;DHT22;14965;50.660;13.226;2023-05-29T03:55:41;7.30;99.90
27224;DHT22;14965;50.660;13.226;2023-05-29T03:58:07;7.40;99.90
27224;DHT22;14965;50.660;13.226;2023-05-29T04:00:35;7.40;99.90
27224;DHT22;14965;50.660;13.226;2023-05-29T04:03:01;7.50;99.90
27224;DHT22;14965;50.660;13.226;2023-05-29T04:05:26;7.50;99.90
27224;DHT22;14965;50.660;13.226;2023-05-29T04:07:52;7.50;99.90
27224;DHT22;14965;50.660;13.226;2023-05-29T04:10:19;7.60;99.90
27224;DHT22;14965;50.660;13.226;2023-05-29T04:12:45;7.70;99.90
27224;DHT22;14965;50.660;13.226;2023-05-29T04:15:11;7.90;99.90
27224;DHT22;14965;50.660;13.226;2023-05-29T04:17:38;8.00;99.90
27224;DHT22;14965;50.660;13.226;2023-05-29T04:20:04;8.20;99.90
27224;DHT22;14965;50.660;13.226;2023-05-29T04:22:31;8.30;99.90
27224;DHT22;14965;50.660;13.226;2023-05-29T04:24:57;8.50;99.90
27224;DHT22;14965;50.660;13.226;2023-05-29T04:27:23;9.10;99.90
27224;DHT22;14965;50.660;13.226;2023-05-29T04:29:48;10.40;99.90
27224;DHT22;14965;50.660;13.226;2023-05-29T04:32:14;11.80;99.90
27224;DHT22;14965;50.660;13.226;2023-05-29T04:34:41;13.20;99.90
27224;DHT22;14965;50.660;13.226;2023-05-29T04:37:08;14.60;99.90
27224;DHT22;14965;50.660;13.226;2023-05-29T04:39:34;15.80;99.90
27224;DHT22;14965;50.660;13.226;2023-05-29T04:42:00;16.80;99.80
27224;DHT22;14965;50.660;13.226;2023-05-29T04:44:26;17.60;96.70
27224;DHT22;14965;50.660;13.226;2023-05-29T04:46:52;18.30;94.30
27224;DHT22;14965;50.660;13.226;2023-05-29T04:49:18;18.90;91.80
27224;DHT22;14965;50.660;13.226;2023-05-29T04:51:45;19.30;90.00
27224;DHT22;14965;50.660;13.226;2023-05-29T04:54:11;19.60;87.20
27224;DHT22;14965;50.660;13.226;2023-05-29T04:56:37;19.90;85.70
27224;DHT22;14965;50.660;13.226;2023-05-29T04:59:03;20.30;83.30
27224;DHT22;14965;50.660;13.226;2023-05-29T05:01:29;20.70;81.40
27224;DHT22;14965;50.660;13.226;2023-05-29T05:03:55;21.00;79.50
27224;DHT22;14965;50.660;13.226;2023-05-29T05:06:21;21.50;77.90
27224;DHT22;14965;50.660;13.226;2023-05-29T05:08:48;21.80;76.00
27224;DHT22;14965;50.660;13.226;2023-05-29T05:11:14;22.20;74.70
27224;DHT22;14965;50.660;13.226;2023-05-29T05:13:40;22.50;73.30
27224;DHT22;14965;50.660;13.226;2023-05-29T05:16:06;22.80;71.50
27224;DHT22;14965;50.660;13.226;2023-05-29T05:18:32;22.90;70.70
27224;DHT22;14965;50.660;13.226;2023-05-29T05:20:57;23.10;70.10
27224;DHT22;14965;50.660;13.226;2023-05-29T05:23:23;23.00;68.90
27224;DHT22;14965;50.660;13.226;2023-05-29T05:25:50;23.00;68.90
27224;DHT22;14965;50.660;13.226;2023-05-29T05:28:16;23.10;69.00
27224;DHT22;14965;50.660;13.226;2023-05-29T05:30:42;23.30;69.20
27224;DHT22;14965;50.660;13.226;2023-05-29T05:33:08;23.50;68.70
27224;DHT22;14965;50.660;13.226;2023-05-29T05:35:34;23.80;67.80
27224;DHT22;14965;50.660;13.226;2023-05-29T05:38:00;24.10;66.90
27224;DHT22;14965;50.660;13.226;2023-05-29T05:40:26;24.50;66.00
27224;DHT22;14965;50.660;13.226;2023-05-29T05:42:53;24.60;66.00
27224;DHT22;14965;50.660;13.226;2023-05-29T05:45:19;24.60;65.50
27224;DHT22;14965;50.660;13.226;2023-05-29T05:47:46;24.80;65.00
27224;DHT22;14965;50.660;13.226;2023-05-29T05:50:12;25.20;64.20
27224;DHT22;14965;50.660;13.226;2023-05-29T05:52:38;25.50;63.60
27224;DHT22;14965;50.660;13.226;2023-05-29T05:55:04;25.60;63.90
27224;DHT22;14965;50.660;13.226;2023-05-29T05:57:31;25.70;63.30
27224;DHT22;14965;50.660;13.226;2023-05-29T05:59:58;25.90;61.30
27224;DHT22;14965;50.660;13.226;2023-05-29T06:02:24;26.00;61.70
27224;DHT22;14965;50.660;13.226;2023-05-29T06:04:50;25.80;60.90
27224;DHT22;14965;50.660;13.226;2023-05-29T06:07:16;25.60;61.90
27224;DHT22;14965;50.660;13.226;2023-05-29T06:09:41;25.00;62.80
27224;DHT22;14965;50.660;13.226;2023-05-29T06:12:08;24.70;63.70
27224;DHT22;14965;50.660;13.226;2023-05-29T06:14:34;24.00;64.10
27224;DHT22;14965;50.660;13.226;2023-05-29T06:17:01;23.40;64.70
27224;DHT22;14965;50.660;13.226;2023-05-29T06:19:27;23.20;66.50
27224;DHT22;14965;50.660;13.226;2023-05-29T06:21:53;23.10;66.50
27224;DHT22;14965;50.660;13.226;2023-05-29T06:24:19;23.30;65.30
27224;DHT22;14965;50.660;13.226;2023-05-29T06:26:45;22.90;64.40
27224;DHT22;14965;50.660;13.226;2023-05-29T06:29:10;22.70;62.60
27224;DHT22;14965;50.660;13.226;2023-05-29T06:31:36;22.10;61.20
27224;DHT22;14965;50.660;13.226;2023-05-29T06:34:03;21.80;63.30
27224;DHT22;14965;50.660;13.226;2023-05-29T06:36:29;21.30;64.50
27224;DHT22;14965;50.660;13.226;2023-05-29T06:38:55;21.00;65.70
27224;DHT22;14965;50.660;13.226;2023-05-29T06:41:21;20.80;64.40
27224;DHT22;14965;50.660;13.226;2023-05-29T06:43:47;20.90;65.90
27224;DHT22;14965;50.660;13.226;2023-05-29T06:46:12;20.70;66.10
27224;DHT22;14965;50.660;13.226;2023-05-29T06:48:38;20.40;66.10
27224;DHT22;14965;50.660;13.226;2023-05-29T06:51:05;20.20;66.50
27224;DHT22;14965;50.660;13.226;2023-05-29T06:53:31;20.00;66.00
27224;DHT22;14965;50.660;13.226;2023-05-29T06:55:57;19.90;67.20
27224;DHT22;14965;50.660;13.226;2023-05-29T06:58:23;20.10;67.20
27224;DHT22;14965;50.660;13.226;2023-05-29T07:00:50;20.30;66.90
27224;DHT22;14965;50.660;13.226;2023-05-29T07:03:16;20.80;66.50
27224;DHT22;14965;50.660;13.226;2023-05-29T07:05:42;20.70;65.30
27224;DHT22;14965;50.660;13.226;2023-05-29T07:08:09;20.60;66.20
27224;DHT22;14965;50.660;13.226;2023-05-29T07:10:35;20.60;66.40
27224;DHT22;14965;50.660;13.226;2023-05-29T07:13:01;20.60;65.80
27224;DHT22;14965;50.660;13.226;2023-05-29T07:15:27;20.50;66.10
27224;DHT22;14965;50.660;13.226;2023-05-29T07:17:53;20.30;67.50
27224;DHT22;14965;50.660;13.226;2023-05-29T07:20:19;20.10;66.70
27224;DHT22;14965;50.660;13.226;2023-05-29T07:22:45;20.10;68.10
27224;DHT22;14965;50.660;13.226;2023-05-29T07:25:13;20.00;69.10
27224;DHT22;14965;50.660;13.226;2023-05-29T07:27:38;19.90;71.10
27224;DHT22;14965;50.660;13.226;2023-05-29T07:30:06;19.70;70.70
27224;DHT22;14965;50.660;13.226;2023-05-29T07:32:32;19.70;71.00
27224;DHT22;14965;50.660;13.226;2023-05-29T07:34:58;19.60;71.60
27224;DHT22;14965;50.660;13.226;2023-05-29T07:37:24;19.70;72.00
27224;DHT22;14965;50.660;13.226;2023-05-29T07:39:50;19.40;72.90
27224;DHT22;14965;50.660;13.226;2023-05-29T07:42:17;19.60;75.00
27224;DHT22;14965;50.660;13.226;2023-05-29T07:44:44;19.60;73.50
27224;DHT22;14965;50.660;13.226;2023-05-29T07:47:10;19.80;73.90
27224;DHT22;14965;50.660;13.226;2023-05-29T07:49:36;19.60;74.70
27224;DHT22;14965;50.660;13.226;2023-05-29T07:52:02;19.70;74.00
27224;DHT22;14965;50.660;13.226;2023-05-29T07:54:28;19.50;71.20
27224;DHT22;14965;50.660;13.226;2023-05-29T07:56:54;19.80;74.10
27224;DHT22;14965;50.660;13.226;2023-05-29T07:59:21;19.80;71.30
27224;DHT22;14965;50.660;13.226;2023-05-29T08:01:47;19.60;69.80
27224;DHT22;14965;50.660;13.226;2023-05-29T08:04:13;19.40;69.20
27224;DHT22;14965;50.660;13.226;2023-05-29T08:06:39;19.30;68.80
27224;DHT22;14965;50.660;13.226;2023-05-29T08:09:05;19.30;69.80
27224;DHT22;14965;50.660;13.226;2023-05-29T08:11:31;19.40;74.30
27224;DHT22;14965;50.660;13.226;2023-05-29T08:13:57;19.50;70.20
27224;DHT22;14965;50.660;13.226;2023-05-29T08:16:25;19.20;68.70
27224;DHT22;14965;50.660;13.226;2023-05-29T08:18:51;19.20;70.30
27224;DHT22;14965;50.660;13.226;2023-05-29T08:21:17;19.10;69.80
27224;DHT22;14965;50.660;13.226;2023-05-29T08:23:43;19.00;69.90
27224;DHT22;14965;50.660;13.226;2023-05-29T08:26:09;19.10;70.40
27224;DHT22;14965;50.660;13.226;2023-05-29T08:28:35;19.20;70.00
27224;DHT22;14965;50.660;13.226;2023-05-29T08:31:01;19.10;69.20
27224;DHT22;14965;50.660;13.226;2023-05-29T08:33:29;19.10;70.00
27224;DHT22;14965;50.660;13.226;2023-05-29T08:35:56;19.20;69.50
27224;DHT22;14965;50.660;13.226;2023-05-29T08:38:22;19.30;69.90
27224;DHT22;14965;50.660;13.226;2023-05-29T08:40:48;19.30;70.50
27224;DHT22;14965;50.660;13.226;2023-05-29T08:43:16;19.30;72.00
27224;DHT22;14965;50.660;13.226;2023-05-29T08:45:48;19.30;71.50
27224;DHT22;14965;50.660;13.226;2023-05-29T08:48:18;19.30;70.70
27224;DHT22;14965;50.660;13.226;2023-05-29T08:50:52;19.40;70.10
27224;DHT22;14965;50.660;13.226;2023-05-29T08:53:20;19.30;70.00
27224;DHT22;14965;50.660;13.226;2023-05-29T08:55:47;19.10;70.90
27224;DHT22;14965;50.660;13.226;2023-05-29T08:58:13;18.90;70.90
27224;DHT22;14965;50.660;13.226;2023-05-29T09:00:39;18.90;71.00
27224;DHT22;14965;50.660;13.226;2023-05-29T09:03:06;19.00;70.90
27224;DHT22;14965;50.660;13.226;2023-05-29T09:05:32;18.90;70.00
27224;DHT22;14965;50.660;13.226;2023-05-29T09:08:00;18.80;71.20
27224;DHT22;14965;50.660;13.226;2023-05-29T09:10:26;18.80;70.20
27224;DHT22;14965;50.660;13.226;2023-05-29T09:12:52;18.90;70.80
27224;DHT22;14965;50.660;13.226;2023-05-29T09:15:19;19.00;71.50
27224;DHT22;14965;50.660;13.226;2023-05-29T09:17:50;19.30;71.80
27224;DHT22;14965;50.660;13.226;2023-05-29T09:20:16;19.20;68.20
27224;DHT22;14965;50.660;13.226;2023-05-29T09:22:43;19.20;68.10
27224;DHT22;14965;50.660;13.226;2023-05-29T09:25:18;19.10;68.20
27224;DHT22;14965;50.660;13.226;2023-05-29T09:27:45;19.10;67.00
27224;DHT22;14965;50.660;13.226;2023-05-29T09:30:11;19.10;65.70
27224;DHT22;14965;50.660;13.226;2023-05-29T09:32:57;19.00;67.10
27224;DHT22;14965;50.660;13.226;2023-05-29T09:35:24;19.10;68.80
27224;DHT22;14965;50.660;13.226;2023-05-29T09:37:50;19.10;66.20
27224;DHT22;14965;50.660;13.226;2023-05-29T09:40:16;19.10;66.20
27224;DHT22;14965;50.660;13.226;2023-05-29T09:42:43;19.00;66.90
27224;DHT22;14965;50.660;13.226;2023-05-29T09:45:09;18.90;69.40
27224;DHT22;14965;50.660;13.226;2023-05-29T09:47:35;19.10;67.10
27224;DHT22;14965;50.660;13.226;2023-05-29T09:50:01;19.30;66.80
27224;DHT22;14965;50.660;13.226;2023-05-29T09:52:29;19.30;67.40
27224;DHT22;14965;50.660;13.226;2023-05-29T09:54:55;19.40;66.70
27224;DHT22;14965;50.660;13.226;2023-05-29T09:57:21;19.50;67.00
27224;DHT22;14965;50.660;13.226;2023-05-29T09:59:52;19.60;66.50
27224;DHT22;14965;50.660;13.226;2023-05-29T10:02:18;19.70;67.80
27224;DHT22;14965;50.660;13.226;2023-05-29T10:04:45;19.70;65.20
27224;DHT22;14965;50.660;13.226;2023-05-29T10:07:18;19.60;63.80
27224;DHT22;14965;50.660;13.226;2023-05-29T10:09:53;19.50;67.50
27224;DHT22;14965;50.660;13.226;2023-05-29T10:12:27;19.60;67.20
27224;DHT22;14965;50.660;13.226;2023-05-29T10:14:57;19.60;67.20
27224;DHT22;14965;50.660;13.226;2023-05-29T10:17:28;19.70;65.80
27224;DHT22;14965;50.660;13.226;2023-05-29T10:20:01;19.70;66.50
27224;DHT22;14965;50.660;13.226;2023-05-29T10:22:31;19.60;68.40
27224;DHT22;14965;50.660;13.226;2023-05-29T10:24:59;19.70;69.90
27224;DHT22;14965;50.660;13.226;2023-05-29T10:27:25;19.80;69.10
27224;DHT22;14965;50.660;13.226;2023-05-29T10:29:58;19.80;68.00
27224;DHT22;14965;50.660;13.226;2023-05-29T10:32:32;19.60;69.10
27224;DHT22;14965;50.660;13.226;2023-05-29T10:35:10;19.60;71.60
27224;DHT22;14965;50.660;13.226;2023-05-29T10:37:45;19.60;72.10
27224;DHT22;14965;50.660;13.226;2023-05-29T10:40:23;19.70;70.60
27224;DHT22;14965;50.660;13.226;2023-05-29T10:42:50;20.00;71.40
27224;DHT22;14965;50.660;13.226;2023-05-29T10:48:35;20.00;71.20
27224;DHT22;14965;50.660;13.226;2023-05-29T10:51:05;19.90;69.10
27224;DHT22;14965;50.660;13.226;2023-05-29T10:53:31;19.70;69.00
27224;DHT22;14965;50.660;13.226;2023-05-29T10:55:59;19.70;70.10
27224;DHT22;14965;50.660;13.226;2023-05-29T10:58:26;19.90;70.60
27224;DHT22;14965;50.660;13.226;2023-05-29T11:00:53;19.90;68.50
27224;DHT22;14965;50.660;13.226;2023-05-29T11:03:21;19.90;68.70
27224;DHT22;14965;50.660;13.226;2023-05-29T11:05:59;19.90;69.50
27224;DHT22;14965;50.660;13.226;2023-05-29T11:08:32;19.90;69.00
27224;DHT22;14965;50.660;13.226;2023-05-29T11:10:59;19.80;68.50
27224;DHT22;14965;50.660;13.226;2023-05-29T11:13:26;20.00;69.00
27224;DHT22;14965;50.660;13.226;2023-05-29T11:16:09;19.90;69.50
27224;DHT22;14965;50.660;13.226;2023-05-29T11:18:39;20.00;72.70
27224;DHT22;14965;50.660;13.226;2023-05-29T11:21:17;19.90;71.00
27224;DHT22;14965;50.660;13.226;2023-05-29T11:23:50;19.80;73.50
27224;DHT22;14965;50.660;13.226;2023-05-29T11:26:17;19.80;71.60
27224;DHT22;14965;50.660;13.226;2023-05-29T11:28:44;19.70;73.30
27224;DHT22;14965;50.660;13.226;2023-05-29T11:31:12;19.80;72.80
27224;DHT22;14965;50.660;13.226;2023-05-29T11:33:40;19.50;71.60
27224;DHT22;14965;50.660;13.226;2023-05-29T11:36:14;19.50;75.20
27224;DHT22;14965;50.660;13.226;2023-05-29T11:38:40;19.50;72.70
27224;DHT22;14965;50.660;13.226;2023-05-29T11:41:06;19.60;73.10
27224;DHT22;14965;50.660;13.226;2023-05-29T11:43:32;19.50;72.10
27224;DHT22;14965;50.660;13.226;2023-05-29T11:45:58;19.70;73.80
27224;DHT22;14965;50.660;13.226;2023-05-29T11:48:25;19.80;72.10
27224;DHT22;14965;50.660;13.226;2023-05-29T11:50:52;19.90;73.80
27224;DHT22;14965;50.660;13.226;2023-05-29T11:53:18;19.90;72.20
27224;DHT22;14965;50.660;13.226;2023-05-29T11:55:44;19.70;71.30
27224;DHT22;14965;50.660;13.226;2023-05-29T11:58:10;19.70;72.70
27224;DHT22;14965;50.660;13.226;2023-05-29T12:00:37;19.60;70.90
27224;DHT22;14965;50.660;13.226;2023-05-29T12:03:04;19.70;73.80
27224;DHT22;14965;50.660;13.226;2023-05-29T12:05:33;19.80;72.60
27224;DHT22;14965;50.660;13.226;2023-05-29T12:08:10;19.90;72.40
27224;DHT22;14965;50.660;13.226;2023-05-29T12:10:35;19.80;71.50
27224;DHT22;14965;50.660;13.226;2023-05-29T12:13:01;19.70;71.80
27224;DHT22;14965;50.660;13.226;2023-05-29T12:15:28;19.80;71.20
27224;DHT22;14965;50.660;13.226;2023-05-29T12:17:54;19.80;72.50
27224;DHT22;14965;50.660;13.226;2023-05-29T12:20:23;20.00;75.00
27224;DHT22;14965;50.660;13.226;2023-05-29T12:22:51;20.10;72.80
27224;DHT22;14965;50.660;13.226;2023-05-29T12:25:19;20.20;70.90
27224;DHT22;14965;50.660;13.226;2023-05-29T12:27:46;20.10;70.70
27224;DHT22;14965;50.660;13.226;2023-05-29T12:30:14;20.10;71.00
27224;DHT22;14965;50.660;13.226;2023-05-29T12:32:45;20.10;72.30
27224;DHT22;14965;50.660;13.226;2023-05-29T12:35:14;19.90;70.60
27224;DHT22;14965;50.660;13.226;2023-05-29T12:37:42;19.70;72.00
27224;DHT22;14965;50.660;13.226;2023-05-29T12:40:11;19.60;74.20
27224;DHT22;14965;50.660;13.226;2023-05-29T12:42:39;19.60;73.80
27224;DHT22;14965;50.660;13.226;2023-05-29T12:45:07;19.60;75.10
27224;DHT22;14965;50.660;13.226;2023-05-29T12:47:33;19.70;73.00
27224;DHT22;14965;50.660;13.226;2023-05-29T12:49:59;19.70;72.80
27224;DHT22;14965;50.660;13.226;2023-05-29T12:52:25;19.60;72.80
27224;DHT22;14965;50.660;13.226;2023-05-29T12:54:51;19.60;73.80
27224;DHT22;14965;50.660;13.226;2023-05-29T12:57:18;19.60;74.80
27224;DHT22;14965;50.660;13.226;2023-05-29T12:59:44;19.70;74.60
27224;DHT22;14965;50.660;13.226;2023-05-29T13:02:11;19.60;72.90
27224;DHT22;14965;50.660;13.226;2023-05-29T13:04:36;19.50;73.40
27224;DHT22;14965;50.660;13.226;2023-05-29T13:07:03;19.30;72.40
27224;DHT22;14965;50.660;13.226;2023-05-29T13:09:29;19.30;72.70
27224;DHT22;14965;50.660;13.226;2023-05-29T13:11:55;19.40;73.70
27224;DHT22;14965;50.660;13.226;2023-05-29T13:14:22;19.50;72.60
27224;DHT22;14965;50.660;13.226;2023-05-29T13:16:48;19.70;73.40
27224;DHT22;14965;50.660;13.226;2023-05-29T13:19:14;19.70;74.30
27224;DHT22;14965;50.660;13.226;2023-05-29T13:21:39;19.60;73.40
27224;DHT22;14965;50.660;13.226;2023-05-29T13:24:05;19.60;76.90
27224;DHT22;14965;50.660;13.226;2023-05-29T13:26:31;19.60;74.80
27224;DHT22;14965;50.660;13.226;2023-05-29T13:28:57;19.60;74.80
27224;DHT22;14965;50.660;13.226;2023-05-29T13:31:25;19.70;75.70
27224;DHT22;14965;50.660;13.226;2023-05-29T13:33:51;19.80;74.80
27224;DHT22;14965;50.660;13.226;2023-05-29T13:36:17;19.80;76.30
27224;DHT22;14965;50.660;13.226;2023-05-29T13:38:43;19.80;72.90
27224;DHT22;14965;50.660;13.226;2023-05-29T13:41:10;19.80;73.70
27224;DHT22;14965;50.660;13.226;2023-05-29T13:43:35;19.90;73.50
27224;DHT22;14965;50.660;13.226;2023-05-29T13:46:01;19.90;73.00
27224;DHT22;14965;50.660;13.226;2023-05-29T13:48:29;19.90;73.70
27224;DHT22;14965;50.660;13.226;2023-05-29T13:50:55;19.90;71.20
27224;DHT22;14965;50.660;13.226;2023-05-29T13:53:21;19.90;72.70
27224;DHT22;14965;50.660;13.226;2023-05-29T13:55:47;19.80;72.60
27224;DHT22;14965;50.660;13.226;2023-05-29T13:58:13;19.90;73.20
27224;DHT22;14965;50.660;13.226;2023-05-29T14:00:39;20.00;72.20
27224;DHT22;14965;50.660;13.226;2023-05-29T14:03:04;20.10;73.70
27224;DHT22;14965;50.660;13.226;2023-05-29T14:05:32;20.00;71.70
27224;DHT22;14965;50.660;13.226;2023-05-29T14:07:57;19.90;72.20
27224;DHT22;14965;50.660;13.226;2023-05-29T14:10:23;19.80;71.40
27224;DHT22;14965;50.660;13.226;2023-05-29T14:12:49;19.80;71.00
27224;DHT22;14965;50.660;13.226;2023-05-29T14:15:15;19.90;71.50
27224;DHT22;14965;50.660;13.226;2023-05-29T14:17:41;19.70;72.00
27224;DHT22;14965;50.660;13.226;2023-05-29T14:20:08;19.50;73.10
27224;DHT22;14965;50.660;13.226;2023-05-29T14:22:35;19.50;74.00
27224;DHT22;14965;50.660;13.226;2023-05-29T14:25:01;19.50;73.60
27224;DHT22;14965;50.660;13.226;2023-05-29T14:27:28;19.60;72.50
27224;DHT22;14965;50.660;13.226;2023-05-29T14:29:53;19.70;71.30
27224;DHT22;14965;50.660;13.226;2023-05-29T14:32:19;19.90;72.90
27224;DHT22;14965;50.660;13.226;2023-05-29T14:34:45;19.90;71.60
27224;DHT22;14965;50.660;13.226;2023-05-29T14:37:11;20.00;71.90
27224;DHT22;14965;50.660;13.226;2023-05-29T14:39:59;20.00;71.10
27224;DHT22;14965;50.660;13.226;2023-05-29T14:42:25;20.00;71.30
27224;DHT22;14965;50.660;13.226;2023-05-29T14:44:51;20.00;70.40
27224;DHT22;14965;50.660;13.226;2023-05-29T14:47:17;19.90;69.90
27224;DHT22;14965;50.660;13.226;2023-05-29T14:49:43;20.00;71.60
27224;DHT22;14965;50.660;13.226;2023-05-29T14:52:08;19.70;72.20
27224;DHT22;14965;50.660;13.226;2023-05-29T14:54:34;19.70;72.30
27224;DHT22;14965;50.660;13.226;2023-05-29T14:57:02;19.70;71.60
27224;DHT22;14965;50.660;13.226;2023-05-29T14:59:27;19.70;70.20
27224;DHT22;14965;50.660;13.226;2023-05-29T15:01:53;19.70;70.80
27224;DHT22;14965;50.660;13.226;2023-05-29T15:04:19;19.70;69.90
27224;DHT22;14965;50.660;13.226;2023-05-29T15:06:45;19.70;70.20
27224;DHT22;14965;50.660;13.226;2023-05-29T15:09:11;19.60;68.70
27224;DHT22;14965;50.660;13.226;2023-05-29T15:11:37;19.50;72.40
27224;DHT22;14965;50.660;13.226;2023-05-29T15:14:04;19.50;72.90
27224;DHT22;14965;50.660;13.226;2023-05-29T15:16:30;19.50;73.70
27224;DHT22;14965;50.660;13.226;2023-05-29T15:18:56;19.50;73.80
27224;DHT22;14965;50.660;13.226;2023-05-29T15:21:22;19.40;73.00
27224;DHT22;14965;50.660;13.226;2023-05-29T15:23:48;19.50;72.70
27224;DHT22;14965;50.660;13.226;2023-05-29T15:26:14;19.50;72.60